Rangamati, Bangladesh

11:32 AM BDT on July 28, 2014 (GMT +0600)
M.A. Hannan International (VGEG) Elev 13 ft | 22.27 °N, 91.82 °E | Change Station

Current weather conditions updated 42 minutes ago

Mostly Cloudy
Mostly Cloudy
88 °F
Feels Like 100 °F
N
10
Wind Variable Wind from SE

Today is forecast to be nearly the same temperature as yesterday. A few thunderstorms possible.

Today
High -- | Low -- °F
--% Chance of Precip.
Yesterday
High -- | Low -- °F
Precip. -- in
5:20 AM 6:34 PM
New Moon, 1% visible
Pressure 29.59 in
Visibility 4.3 miles
Clouds Scattered Clouds 1800 ft
Mostly Cloudy 10000 ft
Heat Index 100 °F
Dew Point 77 °F
Humidity 70%
Rainfall 0.00 in
Snow Depth Not available.
UV 9 out of 12
Pollen Not available.
Air Quality Not available.
Flu Activity Not available.
METAR VGEG 280450Z 13009KT 7000 SCT018 BKN100 31/25 Q1002 NOSIG

More Conditions Fewer Conditions

Pressure 29.59 in
Visibility 4.3 miles
Clouds Scattered Clouds 1800 ft
Mostly Cloudy 10000 ft
Heat Index 100 °F
Dew Point 77 °F
Humidity 70%
Rainfall 0.00 in
Snow Depth Not available.
UV 9 out of 12
Pollen Not available.
Air Quality Not available.
Flu Activity Not available.
METAR VGEG 280450Z 13009KT 7000 SCT018 BKN100 31/25 Q1002 NOSIG

More Conditions Fewer Conditions

10-Day Weather Forecast

Almanac

Astronomy

Jul. 28, 2014 Rise Set
Actual Time 5:20 AM BDT 6:34 PM BDT
Civil Twilight 4:56 AM BDT 6:58 PM BDT
Nautical Twilight 4:28 AM BDT 7:27 PM BDT
Astronomical Twilight 3:58 AM BDT 7:56 PM BDT
Moon 6:19 AM BDT 7:17 PM BDT
Length of Visible Light 14h 01m
Length of Day
13h 13m
Tomorrow will be 0m 55s shorter.
New Moon, 1% of the Moon is Illuminated
Today
New Moon
Aug 3
First Quarter
Aug 10
Full
Aug 17
Last Quarter
Aug 25
New

Yesterday's Extremes

Country Highs Country Lows

Community

WunderPhotos

Upload Photos

1,738,308 photos uploaded!

Nearby

Snow Depth

Not available.

Earthquake Activity

City Distance Mag. Time & Date
No recent earthquake activity has been reported nearby.
Minimum magnitude displayed is 2.5.

Coastal Water Temperatures

Place Temperature
No Stations Reporting

Nearby Weather Stations

There are no personal weather stations in this area.